Time;durP1;ratioP1;P1;durP2;ratioP2;P2;SDS_P1;SDS_P2;PMS_P1;PMS_P2;Temp;Humidity;BMP_temperature;BMP_pressure;BME280_temperature;BME280_humidity;BME280_pressure;Samples;Min_cycle;Max_cycle;Signal;HPM_P1;HPM_P2
2023/01/31 00:00:46;;;;;;;;;;;;;;;1.05;100.00;97402.06;5076431;28;19955;-74
2023/01/31 00:03:11;;;;;;;;;;;;;;;1.05;100.00;97408.97;5076508;28;19971;-73
2023/01/31 00:05:37;;;;;;;;;;;;;;;1.02;100.00;97402.31;5076238;28;20422;-74
2023/01/31 00:08:03;;;;;;;;;;;;;;;1.02;100.00;97403.13;5076501;28;19947;-73
2023/01/31 00:10:29;;;;;;;;;;;;;;;1.03;100.00;97403.97;5076314;28;20377;-74
2023/01/31 00:12:55;;;;;;;;;;;;;;;1.03;100.00;97398.81;5076101;28;20387;-74
2023/01/31 00:15:22;;;;;;;;;;;;;;;1.00;100.00;97399.88;5076210;28;19949;-74
2023/01/31 00:17:47;;;;;;;;;;;;;;;0.99;100.00;97403.41;5075401;28;19953;-74
2023/01/31 00:20:13;;;;;;;;;;;;;;;0.97;100.00;97394.16;5075657;28;20471;-73
2023/01/31 00:22:39;;;;;;;;;;;;;;;0.96;100.00;97395.91;5075836;28;19986;-73
2023/01/31 00:25:05;;;;;;;;;;;;;;;0.96;100.00;97397.69;5075955;28;20041;-73
2023/01/31 00:27:31;;;;;;;;;;;;;;;0.93;100.00;97391.03;5075860;28;20321;-73
2023/01/31 00:29:57;;;;;;;;;;;;;;;0.93;100.00;97383.28;5075088;28;19990;-74
2023/01/31 00:32:25;;;;;;;;;;;;;;;0.93;100.00;97388.44;5075464;28;20023;-74
2023/01/31 00:34:52;;;;;;;;;;;;;;;0.94;100.00;97384.91;5075474;28;19965;-74
2023/01/31 00:37:19;;;;;;;;;;;;;;;0.94;100.00;97384.91;5075484;28;20338;-74
2023/01/31 00:39:45;;;;;;;;;;;;;;;0.93;100.00;97388.44;5075687;28;19954;-74
2023/01/31 00:42:10;;;;;;;;;;;;;;;0.89;100.00;97379.34;5074679;28;20442;-76
2023/01/31 00:44:36;;;;;;;;;;;;;;;0.85;100.00;97377.97;5075585;28;20006;-74
2023/01/31 00:47:02;;;;;;;;;;;;;;;0.80;100.00;97380.16;5075271;28;20005;-74
2023/01/31 00:49:28;;;;;;;;;;;;;;;0.76;100.00;97381.34;5075134;28;19967;-74
2023/01/31 00:51:54;;;;;;;;;;;;;;;0.72;100.00;97385.16;5075293;28;19951;-74
2023/01/31 00:54:20;;;;;;;;;;;;;;;0.68;100.00;97383.78;5075193;28;19955;-75
2023/01/31 00:56:45;;;;;;;;;;;;;;;0.65;100.00;97384.03;5075181;28;19945;-75
2023/01/31 00:59:11;;;;;;;;;;;;;;;0.63;100.00;97383.34;5075237;28;19957;-75
2023/01/31 01:01:37;;;;;;;;;;;;;;;0.62;100.00;97385.13;5075175;28;19953;-74
2023/01/31 01:04:03;;;;;;;;;;;;;;;0.61;100.00;97378.34;5075031;28;20039;-74
2023/01/31 01:06:29;;;;;;;;;;;;;;;0.61;100.00;97386.09;5074798;28;19949;-75
2023/01/31 01:08:56;;;;;;;;;;;;;;;0.61;100.00;97386.09;5074726;28;20009;-75
2023/01/31 01:11:26;;;;;;;;;;;;;;;0.60;100.00;97376.69;5074149;28;19952;-74
2023/01/31 01:13:52;;;;;;;;;;;;;;;0.61;100.00;97383.50;5074666;28;19945;-74
2023/01/31 01:16:19;;;;;;;;;;;;;;;0.62;100.00;97384.31;5074550;28;20304;-74
2023/01/31 01:18:47;;;;;;;;;;;;;;;0.61;100.00;97375.75;5074665;28;19958;-74
2023/01/31 01:21:14;;;;;;;;;;;;;;;0.60;100.00;97376.69;5074495;28;19955;-74
2023/01/31 01:23:40;;;;;;;;;;;;;;;0.58;100.00;97369.06;5074607;28;19972;-74
2023/01/31 01:26:12;;;;;;;;;;;;;;;0.55;100.00;97371.94;5073218;28;19954;-74
2023/01/31 01:28:38;;;;;;;;;;;;;;;0.52;100.00;97368.78;5074652;28;19957;-74
2023/01/31 01:31:05;;;;;;;;;;;;;;;0.48;100.00;97375.16;5074783;28;20356;-74
2023/01/31 01:33:31;;;;;;;;;;;;;;;0.44;100.00;97366.03;5074388;28;19945;-74
2023/01/31 01:36:00;;;;;;;;;;;;;;;0.40;100.00;97370.69;5074499;28;19954;-74
2023/01/31 01:38:26;;;;;;;;;;;;;;;0.36;100.00;97367.53;5074266;28;19950;-74
2023/01/31 01:40:52;;;;;;;;;;;;;;;0.35;100.00;97367.66;5074794;28;20457;-74
2023/01/31 01:43:18;;;;;;;;;;;;;;;0.33;100.00;97377.28;5073735;28;19975;-75
2023/01/31 01:45:44;;;;;;;;;;;;;;;0.29;100.00;97365.59;5074077;28;20022;-74
2023/01/31 01:48:15;;;;;;;;;;;;;;;0.24;100.00;97360.03;5074123;28;19947;-74
2023/01/31 01:50:44;;;;;;;;;;;;;;;0.20;100.00;97368.00;5074338;28;19953;-73
2023/01/31 01:53:17;;;;;;;;;;;;;;;0.18;100.00;97367.31;5074077;28;20443;-73
2023/01/31 01:56:03;;;;;;;;;;;;;;;0.16;100.00;97369.22;5073828;28;19941;-74
2023/01/31 01:58:52;;;;;;;;;;;;;;;0.15;100.00;97374.53;5073476;28;19964;-75
2023/01/31 02:01:18;;;;;;;;;;;;;;;0.13;100.00;97374.63;5074334;28;20307;-73
2023/01/31 02:03:45;;;;;;;;;;;;;;;0.14;100.00;97375.44;5073998;28;20028;-73
2023/01/31 02:06:11;;;;;;;;;;;;;;;0.12;100.00;97379.91;5073758;28;20320;-74
2023/01/31 02:08:38;;;;;;;;;;;;;;;0.11;100.00;97386.03;5073550;28;19953;-73
2023/01/31 02:11:15;;;;;;;;;;;;;;;0.07;100.00;97372.56;5072958;28;19959;-73
2023/01/31 02:13:41;;;;;;;;;;;;;;;0.04;100.00;97375.41;5073603;28;19944;-73
2023/01/31 02:16:07;;;;;;;;;;;;;;;0.01;100.00;97385.97;5073247;28;19956;-74
2023/01/31 02:18:33;;;;;;;;;;;;;;;-0.03;100.00;97385.41;5074035;28;19984;-73
2023/01/31 02:21:02;;;;;;;;;;;;;;;-0.05;100.00;97389.88;5073588;28;19944;-74
2023/01/31 02:23:40;;;;;;;;;;;;;;;-0.06;100.00;97387.44;5073618;28;19963;-73
2023/01/31 02:26:20;;;;;;;;;;;;;;;-0.08;100.00;97390.16;5057210;28;20421;-73
2023/01/31 02:28:57;;;;;;;;;;;;;;;-0.09;100.00;97388.50;5073907;28;19957;-73
2023/01/31 02:31:31;;;;;;;;;;;;;;;-0.09;100.00;97387.69;5065632;28;19953;-75
2023/01/31 02:33:57;;;;;;;;;;;;;;;-0.10;100.00;97392.03;5073615;28;19945;-73
2023/01/31 02:36:39;;;;;;;;;;;;;;;-0.11;100.00;97399.88;5073238;28;19967;-74
2023/01/31 02:39:19;;;;;;;;;;;;;;;-0.10;100.00;97404.94;5073067;28;19938;-74
2023/01/31 02:42:04;;;;;;;;;;;;;;;-0.11;100.00;97397.31;5072965;28;19980;-74
2023/01/31 02:44:58;;;;;;;;;;;;;;;-0.12;100.00;97401.66;5071868;28;19957;-74
2023/01/31 02:47:44;;;;;;;;;;;;;;;-0.14;100.00;97403.53;5072499;28;20264;-73
2023/01/31 02:50:25;;;;;;;;;;;;;;;-0.16;100.00;97400.28;5060912;28;19953;-73
2023/01/31 02:53:07;;;;;;;;;;;;;;;-0.18;100.00;97397.00;5073064;28;19952;-74
2023/01/31 02:58:21;;;;;;;;;;;;;;;-0.18;100.00;97399.59;5073593;28;20343;-73
2023/01/31 03:00:48;;;;;;;;;;;;;;;-0.17;100.00;97402.97;5073285;28;19955;-73
2023/01/31 03:03:24;;;;;;;;;;;;;;;-0.18;100.00;97407.31;5072804;28;19985;-74
2023/01/31 03:06:09;;;;;;;;;;;;;;;-0.18;100.00;97409.91;5075442;28;19947;-73
2023/01/31 03:08:36;;;;;;;;;;;;;;;-0.18;100.00;97417.63;5069189;28;20425;-73
2023/01/31 03:11:05;;;;;;;;;;;;;;;-0.16;100.00;97417.50;5076915;28;19955;-73
2023/01/31 03:13:46;;;;;;;;;;;;;;;-0.14;100.00;97415.63;5077044;28;19949;-73
2023/01/31 03:19:04;;;;;;;;;;;;;;;-0.11;100.00;97407.63;5076511;28;19953;-73
2023/01/31 03:21:35;;;;;;;;;;;;;;;-0.09;100.00;97398.00;5064204;28;19954;-73
2023/01/31 03:24:03;;;;;;;;;;;;;;;-0.07;100.00;97409.00;5076732;28;19962;-73
2023/01/31 03:26:29;;;;;;;;;;;;;;;-0.06;100.00;97408.06;5076479;28;19952;-73
2023/01/31 03:28:57;;;;;;;;;;;;;;;-0.05;100.00;97407.13;5076828;28;20037;-73
2023/01/31 03:31:25;;;;;;;;;;;;;;;-0.06;100.00;97405.50;5077090;28;19949;-73
2023/01/31 03:33:54;;;;;;;;;;;;;;;-0.07;100.00;97403.84;5076684;28;20298;-73
2023/01/31 03:36:20;;;;;;;;;;;;;;;-0.07;100.00;97409.81;5076819;28;19952;-73
2023/01/31 03:39:02;;;;;;;;;;;;;;;-0.07;100.00;97407.25;5076201;28;20358;-74
2023/01/31 03:41:33;;;;;;;;;;;;;;;-0.08;100.00;97413.34;5076759;28;19957;-73
2023/01/31 03:44:02;;;;;;;;;;;;;;;-0.07;100.00;97409.00;5076378;28;20423;-73
2023/01/31 03:46:39;;;;;;;;;;;;;;;-0.07;100.00;97409.00;5076645;28;19953;-73
2023/01/31 03:49:07;;;;;;;;;;;;;;;-0.07;100.00;97412.41;5076512;28;20033;-73
2023/01/31 03:51:35;;;;;;;;;;;;;;;-0.07;100.00;97414.97;5076223;28;19946;-72
2023/01/31 03:54:05;;;;;;;;;;;;;;;-0.05;100.00;97412.28;5076580;28;19942;-73
2023/01/31 03:56:41;;;;;;;;;;;;;;;-0.06;100.00;97421.78;5076666;28;19942;-73
2023/01/31 03:59:16;;;;;;;;;;;;;;;-0.06;100.00;97424.34;5075335;28;19947;-73
2023/01/31 04:01:44;;;;;;;;;;;;;;;-0.05;100.00;97422.59;5076230;28;20327;-73
2023/01/31 04:04:13;;;;;;;;;;;;;;;-0.04;100.00;97413.94;5075997;28;19966;-72
2023/01/31 04:06:39;;;;;;;;;;;;;;;-0.06;100.00;97416.63;5076390;28;19950;-72
2023/01/31 04:09:05;;;;;;;;;;;;;;;-0.05;100.00;97420.00;5076200;28;20432;-73
2023/01/31 04:11:35;;;;;;;;;;;;;;;-0.05;100.00;97427.75;5075939;28;19956;-72
2023/01/31 04:14:00;;;;;;;;;;;;;;;-0.05;100.00;97428.56;5076096;28;19944;-72
2023/01/31 04:16:26;;;;;;;;;;;;;;;-0.06;100.00;97432.09;5074981;28;20051;-73
2023/01/31 04:18:52;;;;;;;;;;;;;;;-0.07;100.00;97432.22;5075744;28;20357;-72
2023/01/31 04:21:18;;;;;;;;;;;;;;;-0.08;100.00;97425.44;5075519;28;19958;-73
2023/01/31 04:23:44;;;;;;;;;;;;;;;-0.11;100.00;97431.63;5075958;28;20397;-73
2023/01/31 04:26:10;;;;;;;;;;;;;;;-0.14;100.00;97423.38;5076096;28;20368;-73
2023/01/31 04:28:36;;;;;;;;;;;;;;;-0.16;100.00;97425.25;5075747;28;19981;-73
2023/01/31 04:31:01;;;;;;;;;;;;;;;-0.21;100.00;97418.72;5075501;28;20384;-73
2023/01/31 04:33:27;;;;;;;;;;;;;;;-0.26;100.00;97423.41;5075605;28;19996;-73
2023/01/31 04:35:53;;;;;;;;;;;;;;;-0.30;100.00;97416.88;5075585;28;19948;-73
2023/01/31 04:38:19;;;;;;;;;;;;;;;-0.33;100.00;97424.06;5075434;28;19949;-73
2023/01/31 04:40:45;;;;;;;;;;;;;;;-0.37;100.00;97430.41;5074852;28;19957;-73
2023/01/31 04:43:11;;;;;;;;;;;;;;;-0.40;100.00;97428.88;5075057;28;20016;-72
2023/01/31 04:45:36;;;;;;;;;;;;;;;-0.42;100.00;97430.75;5075126;28;19956;-73
2023/01/31 04:48:03;;;;;;;;;;;;;;;-0.43;100.00;97429.13;5074346;28;19998;-73
2023/01/31 04:50:29;;;;;;;;;;;;;;;-0.45;100.00;97426.66;5075285;28;19957;-72
2023/01/31 04:52:55;;;;;;;;;;;;;;;-0.45;100.00;97431.00;5075172;28;19950;-73
2023/01/31 04:55:20;;;;;;;;;;;;;;;-0.45;100.00;97428.44;5075413;28;19949;-73
2023/01/31 04:57:46;;;;;;;;;;;;;;;-0.43;100.00;97426.56;5074927;28;19946;-75
2023/01/31 05:00:13;;;;;;;;;;;;;;;-0.44;100.00;97430.91;5074333;28;19997;-73
2023/01/31 05:02:39;;;;;;;;;;;;;;;-0.43;100.00;97434.28;5074698;28;19975;-73
2023/01/31 05:05:05;;;;;;;;;;;;;;;-0.44;100.00;97432.66;5075285;28;20002;-73
2023/01/31 05:07:31;;;;;;;;;;;;;;;-0.42;100.00;97433.31;5074885;28;19960;-73
2023/01/31 05:09:56;;;;;;;;;;;;;;;-0.41;100.00;97424.66;5075413;28;19962;-73
2023/01/31 05:12:22;;;;;;;;;;;;;;;-0.39;100.00;97427.13;5074011;28;19966;-74
2023/01/31 05:14:50;;;;;;;;;;;;;;;-0.37;100.00;97427.81;5074737;28;19946;-73
2023/01/31 05:17:15;;;;;;;;;;;;;;;-0.37;100.00;97427.81;5074911;28;19949;-74
2023/01/31 05:19:42;;;;;;;;;;;;;;;-0.37;100.00;97430.41;5073666;28;20354;-73
2023/01/31 05:22:08;;;;;;;;;;;;;;;-0.37;100.00;97440.72;5107933;28;19956;-73
2023/01/31 05:24:35;;;;;;;;;;;;;;;-0.37;100.00;97446.66;5074505;28;20008;-73
2023/01/31 05:27:01;;;;;;;;;;;;;;;-0.35;100.00;97447.38;5074478;28;19953;-73
2023/01/31 05:29:28;;;;;;;;;;;;;;;-0.34;100.00;97435.28;5074684;28;20398;-73
2023/01/31 05:31:55;;;;;;;;;;;;;;;-0.30;100.00;97444.41;5074566;28;19952;-73
2023/01/31 05:34:21;;;;;;;;;;;;;;;-0.30;100.00;97445.22;5074443;28;19953;-73
2023/01/31 05:36:47;;;;;;;;;;;;;;;-0.27;100.00;97451.91;5074425;28;19948;-73
2023/01/31 05:39:13;;;;;;;;;;;;;;;-0.27;100.00;97450.16;5073258;28;19955;-73
2023/01/31 05:41:39;;;;;;;;;;;;;;;-0.25;100.00;97442.28;5073971;28;19963;-74
2023/01/31 05:44:05;;;;;;;;;;;;;;;-0.24;100.00;97444.72;5074882;28;19980;-73
2023/01/31 05:46:31;;;;;;;;;;;;;;;-0.23;100.00;97443.78;5074418;28;20427;-73
2023/01/31 05:48:57;;;;;;;;;;;;;;;-0.22;100.00;97447.19;5073125;28;19953;-73
2023/01/31 05:51:23;;;;;;;;;;;;;;;-0.22;100.00;97445.41;5074259;28;20011;-76
2023/01/31 05:53:48;;;;;;;;;;;;;;;-0.22;100.00;97442.03;5074094;28;19994;-73
2023/01/31 05:56:15;;;;;;;;;;;;;;;-0.22;100.00;97449.75;5074286;28;20024;-73
2023/01/31 05:58:41;;;;;;;;;;;;;;;-0.22;100.00;97452.34;5073052;28;19951;-73
2023/01/31 06:01:08;;;;;;;;;;;;;;;-0.22;100.00;97445.41;5074183;28;19949;-73
2023/01/31 06:03:33;;;;;;;;;;;;;;;-0.22;100.00;97442.03;5060014;28;19962;-73
2023/01/31 06:05:59;;;;;;;;;;;;;;;-0.22;100.00;97450.56;5074061;28;19966;-73
2023/01/31 06:08:25;;;;;;;;;;;;;;;-0.23;100.00;97448.94;5074308;28;20046;-73
2023/01/31 06:10:51;;;;;;;;;;;;;;;-0.26;100.00;97445.78;5074346;28;19956;-73
2023/01/31 06:13:17;;;;;;;;;;;;;;;-0.29;100.00;97454.59;5073660;28;19981;-73
2023/01/31 06:15:43;;;;;;;;;;;;;;;-0.29;100.00;97452.03;5073895;28;19959;-74
2023/01/31 06:18:09;;;;;;;;;;;;;;;-0.29;100.00;97456.38;5073614;28;19949;-73
2023/01/31 06:20:35;;;;;;;;;;;;;;;-0.28;100.00;97463.16;5074006;28;19953;-73
2023/01/31 06:23:01;;;;;;;;;;;;;;;-0.32;100.00;97459.19;5073711;28;20025;-73
2023/01/31 06:25:27;;;;;;;;;;;;;;;-0.34;100.00;97455.91;5073623;28;20007;-74
2023/01/31 06:27:54;;;;;;;;;;;;;;;-0.35;100.00;97459.44;5073737;28;19946;-73
2023/01/31 06:30:20;;;;;;;;;;;;;;;-0.36;100.00;97457.78;5073447;28;19953;-73
2023/01/31 06:32:46;;;;;;;;;;;;;;;-0.37;100.00;97463.91;5073845;28;19978;-73
2023/01/31 06:35:12;;;;;;;;;;;;;;;-0.40;100.00;97452.06;5073684;28;20007;-73
2023/01/31 06:37:37;;;;;;;;;;;;;;;-0.42;100.00;97451.38;5073671;28;19949;-73
2023/01/31 06:40:03;;;;;;;;;;;;;;;-0.45;100.00;97456.78;5073269;28;19958;-73
2023/01/31 06:42:29;;;;;;;;;;;;;;;-0.49;100.00;97456.19;5072482;28;19980;-73
2023/01/31 06:44:55;;;;;;;;;;;;;;;-0.52;100.00;97460.81;5073346;28;20429;-74
2023/01/31 06:47:21;;;;;;;;;;;;;;;-0.59;100.00;97468.19;5072446;28;19958;-73
2023/01/31 06:49:47;;;;;;;;;;;;;;;-0.60;100.00;97466.56;5073147;28;19949;-74
2023/01/31 06:52:13;;;;;;;;;;;;;;;-0.64;100.00;97475.47;5073413;28;20002;-73
2023/01/31 06:54:39;;;;;;;;;;;;;;;-0.67;100.00;97492.00;5073189;28;20028;-73
2023/01/31 06:57:05;;;;;;;;;;;;;;;-0.68;100.00;97487.78;5073596;28;19958;-73
2023/01/31 06:59:30;;;;;;;;;;;;;;;-0.70;100.00;97473.38;5073614;28;19965;-74
2023/01/31 07:01:56;;;;;;;;;;;;;;;-0.72;100.00;97477.84;5073603;28;19955;-73
2023/01/31 07:04:22;;;;;;;;;;;;;;;-0.74;100.00;97472.78;5071785;28;19972;-73
2023/01/31 07:06:48;;;;;;;;;;;;;;;-0.75;100.00;97462.63;5073202;28;20060;-73
2023/01/31 07:09:14;;;;;;;;;;;;;;;-0.76;100.00;97461.00;5072622;28;19996;-74
2023/01/31 07:11:40;;;;;;;;;;;;;;;-0.77;100.00;97449.88;5105624;28;19952;-73
2023/01/31 07:14:06;;;;;;;;;;;;;;;-0.77;100.00;97451.63;5072937;28;20001;-73
2023/01/31 07:16:32;;;;;;;;;;;;;;;-0.78;100.00;97455.13;5073417;28;19955;-73
2023/01/31 07:18:58;;;;;;;;;;;;;;;-0.77;100.00;97454.22;5071820;28;19950;-73
2023/01/31 07:21:25;;;;;;;;;;;;;;;-0.78;100.00;97458.53;5072459;28;19966;-74
2023/01/31 07:23:51;;;;;;;;;;;;;;;-0.76;100.00;97459.22;5072901;28;19960;-73
2023/01/31 07:26:17;;;;;;;;;;;;;;;-0.62;100.00;97460.72;5072797;28;19948;-73
2023/01/31 07:28:43;;;;;;;;;;;;;;;-0.28;100.00;97469.09;5073089;28;20003;-74
2023/01/31 07:31:13;;;;;;;;;;;;;;;-0.19;100.00;97466.72;5071649;28;20032;-73
2023/01/31 07:33:39;;;;;;;;;;;;;;;-0.12;100.00;97465.31;5072952;28;19954;-73
2023/01/31 07:36:06;;;;;;;;;;;;;;;0.00;100.00;97464.31;5072956;28;19950;-74
2023/01/31 07:38:32;;;;;;;;;;;;;;;0.19;100.00;97466.19;5072903;28;19955;-74
2023/01/31 07:40:59;;;;;;;;;;;;;;;0.42;100.00;97466.84;5073163;28;20352;-73
2023/01/31 07:43:26;;;;;;;;;;;;;;;0.64;100.00;97465.84;5071709;28;19968;-73
2023/01/31 07:45:52;;;;;;;;;;;;;;;0.87;100.00;97463.88;5072726;28;19948;-73
2023/01/31 07:48:22;;;;;;;;;;;;;;;1.05;99.88;97464.06;5072793;28;19957;-73
2023/01/31 07:50:52;;;;;;;;;;;;;;;1.23;99.06;97455.66;5072731;28;20338;-74
2023/01/31 07:53:18;;;;;;;;;;;;;;;1.37;98.20;97452.69;5076358;28;20324;-74
2023/01/31 07:55:47;;;;;;;;;;;;;;;1.48;97.13;97452.53;5075813;28;19956;-73
2023/01/31 07:58:14;;;;;;;;;;;;;;;1.39;97.05;97449.00;5076008;28;19961;-73
2023/01/31 08:03:33;;;;;;;;;;;;;;;1.56;98.28;97460.44;5075476;28;19987;-73
2023/01/31 08:06:05;;;;;;;;;;;;;;;1.68;97.58;97460.28;5076015;28;21049;-73
2023/01/31 08:08:31;;;;;;;;;;;;;;;1.78;96.85;97451.56;5076548;28;19953;-73
2023/01/31 08:10:57;;;;;;;;;;;;;;;1.87;97.02;97456.88;5075912;28;19992;-73
2023/01/31 08:13:25;;;;;;;;;;;;;;;2.00;96.84;97462.59;5075977;28;19956;-73
2023/01/31 08:15:52;;;;;;;;;;;;;;;2.04;95.63;97456.19;5075923;28;19961;-74
2023/01/31 08:18:17;;;;;;;;;;;;;;;2.13;96.44;97446.78;5075988;28;20327;-72
2023/01/31 08:20:43;;;;;;;;;;;;;;;2.21;95.80;97455.47;5076116;28;19953;-73
2023/01/31 08:23:09;;;;;;;;;;;;;;;2.39;95.82;97457.31;5075806;28;20005;-72
2023/01/31 08:25:35;;;;;;;;;;;;;;;2.54;95.34;97455.91;5075897;28;19984;-72
2023/01/31 08:28:01;;;;;;;;;;;;;;;2.72;93.99;97443.00;5075824;28;19953;-72
2023/01/31 08:30:27;;;;;;;;;;;;;;;2.79;93.76;97438.91;5075680;28;19952;-72
2023/01/31 08:32:53;;;;;;;;;;;;;;;2.80;94.43;97450.88;5075722;28;19955;-71
2023/01/31 08:35:20;;;;;;;;;;;;;;;2.97;94.44;97443.31;5075463;28;19953;-70
2023/01/31 08:37:46;;;;;;;;;;;;;;;3.17;93.02;97434.47;5076273;28;20001;-71
2023/01/31 08:40:12;;;;;;;;;;;;;;;3.23;92.46;97423.50;5075278;28;20412;-71
2023/01/31 08:42:38;;;;;;;;;;;;;;;3.19;90.65;97416.97;5075252;28;19976;-71
2023/01/31 08:45:04;;;;;;;;;;;;;;;3.26;90.66;97412.00;5075399;28;20373;-71
2023/01/31 08:47:30;;;;;;;;;;;;;;;3.40;91.59;97416.69;5075668;28;19957;-71
2023/01/31 08:49:56;;;;;;;;;;;;;;;3.48;91.22;97408.16;5075600;28;19953;-71
2023/01/31 08:52:21;;;;;;;;;;;;;;;3.49;90.75;97406.38;5075450;28;19963;-71
2023/01/31 08:54:47;;;;;;;;;;;;;;;3.53;89.50;97389.53;5075804;28;20021;-71
2023/01/31 08:57:13;;;;;;;;;;;;;;;3.71;91.39;97405.91;5075377;28;19956;-71
2023/01/31 08:59:39;;;;;;;;;;;;;;;3.86;88.35;97375.03;5075044;28;20005;-71
2023/01/31 09:02:05;;;;;;;;;;;;;;;3.85;87.81;97381.19;5075376;28;20039;-71
2023/01/31 09:04:31;;;;;;;;;;;;;;;3.90;88.65;97383.34;5074348;28;20505;-71
2023/01/31 09:06:57;;;;;;;;;;;;;;;3.87;89.25;97384.47;5075080;28;19949;-71
2023/01/31 09:09:24;;;;;;;;;;;;;;;3.89;89.60;97382.53;5074996;28;19960;-72
2023/01/31 09:11:50;;;;;;;;;;;;;;;3.82;89.48;97378.88;5075011;28;19961;-71
2023/01/31 09:14:16;;;;;;;;;;;;;;;3.85;91.74;97407.16;5074805;28;19970;-72
2023/01/31 09:16:44;;;;;;;;;;;;;;;3.77;87.10;97360.38;5107783;28;19948;-72
2023/01/31 09:19:10;;;;;;;;;;;;;;;3.69;87.79;97368.09;5075134;28;19954;-71
2023/01/31 09:21:36;;;;;;;;;;;;;;;3.52;87.59;97377.56;5074649;28;19951;-72
2023/01/31 09:24:02;;;;;;;;;;;;;;;3.44;89.31;97392.09;5074735;28;20426;-72
2023/01/31 09:26:28;;;;;;;;;;;;;;;3.45;91.20;97398.09;5074751;28;19942;-72
2023/01/31 09:28:56;;;;;;;;;;;;;;;3.40;89.30;97380.38;5074703;28;19954;-72
2023/01/31 09:31:22;;;;;;;;;;;;;;;3.42;88.51;97377.63;5075085;28;20496;-72
2023/01/31 09:33:48;;;;;;;;;;;;;;;3.52;90.31;97396.50;5074810;28;19945;-72
2023/01/31 09:36:15;;;;;;;;;;;;;;;3.75;88.38;97378.69;5074624;28;20061;-72
2023/01/31 09:38:41;;;;;;;;;;;;;;;3.98;86.47;97368.63;5074721;28;20021;-72
2023/01/31 09:41:17;;;;;;;;;;;;;;;4.17;88.14;97383.16;5072459;28;19953;-73
2023/01/31 09:43:48;;;;;;;;;;;;;;;4.27;86.38;97357.91;5074213;28;20456;-72
2023/01/31 09:46:17;;;;;;;;;;;;;;;4.29;84.95;97339.59;5075009;28;19957;-72
2023/01/31 09:48:46;;;;;;;;;;;;;;;4.22;85.37;97348.94;5075077;28;19945;-72
2023/01/31 09:51:13;;;;;;;;;;;;;;;4.06;84.53;97352.28;5074337;28;19963;-72
2023/01/31 09:53:40;;;;;;;;;;;;;;;3.93;85.58;97354.50;5074764;28;19946;-73
2023/01/31 09:56:14;;;;;;;;;;;;;;;3.79;85.99;97361.84;5074385;28;19956;-72
2023/01/31 09:58:43;;;;;;;;;;;;;;;3.64;86.19;97359.00;5074211;28;19947;-72
2023/01/31 10:01:15;;;;;;;;;;;;;;;3.52;86.76;97370.56;5073404;28;20297;-72
2023/01/31 10:03:50;;;;;;;;;;;;;;;3.39;87.39;97370.16;5074116;28;19955;-72
2023/01/31 10:06:29;;;;;;;;;;;;;;;3.34;88.66;97378.38;5074041;28;20336;-72
2023/01/31 10:09:13;;;;;;;;;;;;;;;3.32;89.86;97398.47;5073915;28;19947;-72
2023/01/31 10:11:43;;;;;;;;;;;;;;;3.28;89.00;97394.53;5060225;28;19948;-72
2023/01/31 10:14:09;;;;;;;;;;;;;;;3.24;87.89;97390.59;5073717;28;19953;-72
2023/01/31 10:16:40;;;;;;;;;;;;;;;3.16;86.36;97375.78;5073412;28;19947;-72
2023/01/31 10:19:18;;;;;;;;;;;;;;;3.10;86.73;97365.19;5074102;28;19948;-72
2023/01/31 10:21:46;;;;;;;;;;;;;;;3.10;89.27;97385.94;5073758;28;19998;-72
2023/01/31 10:24:16;;;;;;;;;;;;;;;3.11;88.83;97385.78;5073601;28;19958;-72
2023/01/31 10:26:45;;;;;;;;;;;;;;;3.12;88.73;97384.81;5073975;28;19945;-71
2023/01/31 10:29:11;;;;;;;;;;;;;;;3.14;89.77;97406.22;5073642;28;19961;-72
2023/01/31 10:31:55;;;;;;;;;;;;;;;3.17;90.62;97410.28;5073509;28;19948;-71
2023/01/31 10:34:21;;;;;;;;;;;;;;;3.35;89.91;97408.53;5060689;28;19972;-71
2023/01/31 10:36:54;;;;;;;;;;;;;;;3.63;89.32;97395.44;5073535;28;19948;-71
2023/01/31 10:39:27;;;;;;;;;;;;;;;3.92;89.26;97395.19;5073693;28;19950;-71
2023/01/31 10:42:01;;;;;;;;;;;;;;;4.18;87.42;97371.81;5073248;28;19971;-72
2023/01/31 10:44:30;;;;;;;;;;;;;;;4.27;85.06;97354.50;5073879;28;19979;-71
2023/01/31 10:46:57;;;;;;;;;;;;;;;4.30;86.12;97353.38;5073008;28;19941;-71
2023/01/31 10:49:25;;;;;;;;;;;;;;;4.31;83.03;97322.06;5073290;28;20284;-72
2023/01/31 10:51:57;;;;;;;;;;;;;;;4.37;82.13;97313.66;5073584;28;19943;-71
2023/01/31 10:54:32;;;;;;;;;;;;;;;4.60;81.43;97300.06;5073582;28;19945;-71
2023/01/31 10:56:58;;;;;;;;;;;;;;;4.84;81.65;97299.31;5073381;28;19941;-72
2023/01/31 10:59:27;;;;;;;;;;;;;;;5.11;81.98;97308.59;5073220;28;19948;-72
2023/01/31 11:01:53;;;;;;;;;;;;;;;5.37;81.23;97302.41;5073296;28;19953;-72
2023/01/31 11:04:22;;;;;;;;;;;;;;;5.45;80.00;97286.78;5073157;28;20325;-72
2023/01/31 11:06:48;;;;;;;;;;;;;;;5.37;77.62;97258.19;5073243;28;19945;-72
2023/01/31 11:09:15;;;;;;;;;;;;;;;5.22;75.00;97237.25;5073297;28;20291;-72
2023/01/31 11:11:58;;;;;;;;;;;;;;;5.06;79.52;97277.03;5073274;28;19959;-72
2023/01/31 11:14:24;;;;;;;;;;;;;;;4.99;78.08;97270.88;5073024;28;19945;-72
2023/01/31 11:16:55;;;;;;;;;;;;;;;4.86;78.18;97277.38;5073120;28;19961;-72
2023/01/31 11:19:27;;;;;;;;;;;;;;;4.78;77.44;97274.75;5073691;28;19948;-72
2023/01/31 11:21:54;;;;;;;;;;;;;;;4.90;79.39;97293.47;5073012;28;20316;-72
2023/01/31 11:24:22;;;;;;;;;;;;;;;5.08;76.47;97259.50;5073427;28;19958;-72
2023/01/31 11:26:54;;;;;;;;;;;;;;;5.22;74.50;97234.63;5074654;28;20293;-72
2023/01/31 11:29:25;;;;;;;;;;;;;;;5.21;76.04;97259.84;5077270;28;20418;-72
2023/01/31 11:31:51;;;;;;;;;;;;;;;5.34;75.89;97253.34;5076762;28;19958;-72
2023/01/31 11:34:21;;;;;;;;;;;;;;;5.41;74.57;97242.09;5076955;28;19953;-72
2023/01/31 11:36:47;;;;;;;;;;;;;;;5.42;73.33;97204.69;5076240;28;19959;-72
2023/01/31 11:39:28;;;;;;;;;;;;;;;5.37;72.92;97198.38;5077237;28;19955;-72
2023/01/31 11:41:54;;;;;;;;;;;;;;;5.35;75.74;97242.75;5076504;28;19979;-72
2023/01/31 11:44:21;;;;;;;;;;;;;;;5.25;76.80;97227.34;5076611;28;19978;-72
2023/01/31 11:46:50;;;;;;;;;;;;;;;5.18;76.08;97213.34;5075216;28;20427;-72
2023/01/31 11:49:21;;;;;;;;;;;;;;;5.06;75.50;97217.25;5076682;28;19959;-72
2023/01/31 11:51:47;;;;;;;;;;;;;;;4.99;77.56;97237.09;5076628;28;19953;-72
2023/01/31 11:54:17;;;;;;;;;;;;;;;4.86;76.98;97222.00;5076417;28;20008;-72
2023/01/31 11:56:45;;;;;;;;;;;;;;;4.81;79.54;97232.06;5076383;28;19951;-72
2023/01/31 11:59:14;;;;;;;;;;;;;;;4.75;77.45;97206.72;5076202;28;19957;-72
2023/01/31 12:01:45;;;;;;;;;;;;;;;4.62;77.22;97202.81;5076640;28;19954;-72
2023/01/31 12:04:15;;;;;;;;;;;;;;;4.56;77.58;97228.63;5076185;28;19961;-72
2023/01/31 12:06:40;;;;;;;;;;;;;;;4.49;77.83;97236.22;5076013;28;19957;-74
2023/01/31 12:09:26;;;;;;;;;;;;;;;4.46;79.86;97249.56;5076268;28;19987;-72
2023/01/31 12:12:01;;;;;;;;;;;;;;;4.33;77.54;97233.63;5075928;28;19954;-72
2023/01/31 12:14:39;;;;;;;;;;;;;;;4.18;79.81;97262.78;5076070;28;20304;-72
2023/01/31 12:17:09;;;;;;;;;;;;;;;4.05;80.05;97260.63;5076197;28;19954;-72
2023/01/31 12:19:47;;;;;;;;;;;;;;;3.95;80.04;97244.38;5076190;28;20424;-72
2023/01/31 12:22:13;;;;;;;;;;;;;;;3.93;81.08;97281.84;5076094;28;19957;-72
2023/01/31 12:24:58;;;;;;;;;;;;;;;3.87;81.43;97280.66;5076196;28;19958;-71
2023/01/31 12:27:26;;;;;;;;;;;;;;;3.77;80.92;97262.59;5066671;28;19951;-72
2023/01/31 12:30:10;;;;;;;;;;;;;;;3.67;80.90;97269.69;5075947;28;20394;-72
2023/01/31 12:32:36;;;;;;;;;;;;;;;3.58;81.18;97255.84;5075770;28;19948;-71
2023/01/31 12:35:12;;;;;;;;;;;;;;;3.56;80.30;97231.84;5076200;28;19944;-71
2023/01/31 12:37:43;;;;;;;;;;;;;;;3.57;81.37;97233.50;5059553;28;20390;-71
2023/01/31 12:40:30;;;;;;;;;;;;;;;3.58;83.10;97236.91;5076281;28;20415;-71
2023/01/31 12:42:58;;;;;;;;;;;;;;;3.58;81.64;97231.72;5053646;28;19949;-71
2023/01/31 12:45:38;;;;;;;;;;;;;;;3.55;82.33;97232.00;5075759;28;19970;-71
2023/01/31 12:48:25;;;;;;;;;;;;;;;3.52;82.26;97256.47;5059791;28;19945;-71
2023/01/31 12:50:59;;;;;;;;;;;;;;;3.52;82.76;97242.69;5075329;28;19954;-72
2023/01/31 12:53:38;;;;;;;;;;;;;;;3.48;82.81;97251.75;5075390;28;19956;-72
2023/01/31 12:56:06;;;;;;;;;;;;;;;3.40;82.21;97229.16;5076066;28;19946;-71
2023/01/31 12:58:32;;;;;;;;;;;;;;;3.36;82.82;97231.28;5075375;28;19958;-71
2023/01/31 13:01:04;;;;;;;;;;;;;;;3.34;83.13;97222.84;5075369;28;19946;-71
2023/01/31 13:03:33;;;;;;;;;;;;;;;3.30;83.79;97239.66;5075350;28;19943;-71